Time;durP1;ratioP1;P1;durP2;ratioP2;P2;SDS_P1;SDS_P2;PMS_P1;PMS_P2;Temp;Humidity;BMP_temperature;BMP_pressure;BME280_temperature;BME280_humidity;BME280_pressure;Samples;Min_cycle;Max_cycle;Signal;HPM_P1;HPM_P2
2023/03/23 00:00:40;;;;;;;4.45;3.22;;;9.50;99.90;;;;;;5033981;28;20076;-63
2023/03/23 00:03:06;;;;;;;4.05;3.28;;;9.40;99.90;;;;;;5033895;28;20040;-62
2023/03/23 00:05:32;;;;;;;6.75;3.38;;;9.30;99.90;;;;;;5032990;28;20029;-63
2023/03/23 00:07:59;;;;;;;4.93;3.60;;;9.20;99.90;;;;;;5033390;28;20140;-63
2023/03/23 00:10:26;;;;;;;7.80;4.00;;;9.20;99.90;;;;;;5033352;28;20099;-62
2023/03/23 00:12:51;;;;;;;5.93;3.80;;;9.10;99.90;;;;;;5033357;28;20037;-62
2023/03/23 00:15:17;;;;;;;10.90;3.85;;;9.10;99.90;;;;;;5019358;28;20409;-62
2023/03/23 00:17:43;;;;;;;5.63;4.45;;;9.00;99.90;;;;;;5033311;28;20141;-62
2023/03/23 00:20:11;;;;;;;7.13;4.35;;;9.10;99.90;;;;;;5024375;28;20040;-63
2023/03/23 00:22:38;;;;;;;5.60;3.88;;;9.00;99.90;;;;;;5033216;28;20119;-63
2023/03/23 00:25:05;;;;;;;5.07;4.30;;;9.00;99.90;;;;;;5032936;28;20501;-62
2023/03/23 00:27:30;;;;;;;6.10;4.32;;;8.90;99.90;;;;;;5033105;28;20036;-63
2023/03/23 00:29:56;;;;;;;5.18;3.97;;;8.80;99.90;;;;;;5016362;28;20056;-62
2023/03/23 00:32:28;;;;;;;4.97;3.45;;;8.80;99.90;;;;;;5046643;28;20036;-62
2023/03/23 00:35:00;;;;;;;7.03;3.58;;;8.70;99.90;;;;;;5032854;28;20033;-63
2023/03/23 00:37:29;;;;;;;5.35;3.70;;;8.70;99.90;;;;;;5031456;28;20041;-63
2023/03/23 00:39:57;;;;;;;5.80;3.70;;;8.70;99.90;;;;;;5032760;28;20040;-63
2023/03/23 00:42:23;;;;;;;4.10;3.30;;;8.70;99.90;;;;;;5024213;28;20072;-63
2023/03/23 00:44:49;;;;;;;3.97;3.58;;;8.70;99.90;;;;;;5032754;28;20821;-62
2023/03/23 00:47:17;;;;;;;5.55;3.80;;;8.70;99.90;;;;;;5032945;28;20037;-62
2023/03/23 00:49:43;;;;;;;4.63;3.85;;;8.70;99.90;;;;;;5032642;28;20477;-63
2023/03/23 00:52:10;;;;;;;7.28;4.10;;;8.70;99.90;;;;;;5049270;28;20041;-62
2023/03/23 00:54:37;;;;;;;5.13;3.90;;;8.60;99.90;;;;;;5032526;28;20066;-62
2023/03/23 00:57:04;;;;;;;6.07;4.03;;;8.60;99.90;;;;;;5032418;28;20425;-62
2023/03/23 00:59:30;;;;;;;6.75;4.53;;;8.60;99.90;;;;;;5032422;28;20033;-63
2023/03/23 01:01:56;;;;;;;5.25;3.80;;;8.60;99.90;;;;;;5032682;28;20041;-63
2023/03/23 01:04:22;;;;;;;5.00;3.90;;;8.60;99.90;;;;;;5032588;28;20099;-63
2023/03/23 01:06:50;;;;;;;7.18;3.75;;;8.50;99.90;;;;;;5006937;28;20041;-62
2023/03/23 01:09:17;;;;;;;6.13;3.75;;;8.40;99.90;;;;;;5031504;28;20048;-63
2023/03/23 01:11:44;;;;;;;6.60;3.92;;;8.40;99.90;;;;;;5015927;28;20444;-63
2023/03/23 01:14:10;;;;;;;8.73;3.83;;;8.40;99.90;;;;;;5013840;28;20044;-62
2023/03/23 01:16:36;;;;;;;6.20;3.58;;;8.40;99.90;;;;;;5032495;28;20589;-62
2023/03/23 01:19:02;;;;;;;8.75;3.80;;;8.40;99.90;;;;;;5032305;28;20108;-63
2023/03/23 01:21:28;;;;;;;5.95;3.90;;;8.40;99.90;;;;;;5048984;28;20025;-62
2023/03/23 01:23:54;;;;;;;5.55;3.95;;;8.30;99.90;;;;;;5032230;28;20401;-63
2023/03/23 01:26:23;;;;;;;5.68;3.85;;;8.30;99.90;;;;;;5015817;28;20505;-62
2023/03/23 01:28:49;;;;;;;5.82;3.65;;;8.40;99.90;;;;;;5032164;28;20044;-62
2023/03/23 01:31:17;;;;;;;7.88;4.28;;;8.50;99.90;;;;;;5032228;28;20523;-63
2023/03/23 01:33:44;;;;;;;6.50;4.05;;;8.60;99.90;;;;;;5032292;28;20139;-63
2023/03/23 01:36:15;;;;;;;6.72;4.38;;;8.60;99.90;;;;;;5032156;28;20361;-63
2023/03/23 01:38:44;;;;;;;6.65;3.88;;;8.70;99.90;;;;;;5032764;28;20132;-62
2023/03/23 01:41:12;;;;;;;6.05;4.10;;;8.70;99.90;;;;;;5032267;28;20148;-63
2023/03/23 01:44:01;;;;;;;7.55;4.30;;;8.70;99.90;;;;;;5032409;28;20040;-63
2023/03/23 01:46:33;;;;;;;5.18;3.90;;;8.80;99.90;;;;;;5016340;28;20468;-62
2023/03/23 01:49:27;;;;;;;6.68;3.97;;;8.80;99.90;;;;;;5032147;28;20033;-62
2023/03/23 01:51:55;;;;;;;;;;;8.90;99.90;;;;;;5015337;28;20492;-62
2023/03/23 01:54:23;;;;;;;6.32;4.00;;;9.00;99.90;;;;;;5065853;28;20360;-63
2023/03/23 01:56:53;;;;;;;6.38;5.05;;;9.00;99.90;;;;;;5032596;28;20037;-63
2023/03/23 01:59:20;;;;;;;6.90;4.18;;;9.00;99.90;;;;;;5032462;28;20193;-62
2023/03/23 02:01:53;;;;;;;5.88;4.10;;;9.10;99.90;;;;;;5030567;28;20041;-62
2023/03/23 02:04:21;;;;;;;7.43;4.32;;;9.10;99.90;;;;;;5012219;28;20107;-62
2023/03/23 02:06:47;;;;;;;7.80;4.35;;;9.20;99.90;;;;;;5024285;28;20037;-62
2023/03/23 02:09:21;;;;;;;5.43;4.10;;;9.20;99.90;;;;;;5032015;28;20056;-62
2023/03/23 02:11:49;;;;;;;7.47;4.10;;;9.30;99.90;;;;;;5015791;28;20040;-62
2023/03/23 02:14:17;;;;;;;6.00;4.35;;;9.40;99.90;;;;;;5015360;28;20040;-62
2023/03/23 02:16:54;;;;;;;7.60;4.47;;;9.40;99.90;;;;;;5048418;28;20583;-62
2023/03/23 02:20:06;;;;;;;6.88;4.80;;;9.40;99.90;;;;;;5029000;28;20040;-62
2023/03/23 02:22:59;;;;;;;5.65;4.28;;;9.40;99.90;;;;;;5043264;28;20059;-62
2023/03/23 02:26:15;;;;;;;6.05;4.57;;;9.50;99.90;;;;;;5065113;28;20501;-62
2023/03/23 02:28:53;;;;;;;6.72;4.43;;;9.50;99.90;;;;;;5033033;28;20045;-62
2023/03/23 02:31:38;;;;;;;7.45;5.22;;;9.60;99.90;;;;;;5018170;28;20481;-62
2023/03/23 02:34:14;;;;;;;8.60;6.40;;;9.50;99.90;;;;;;5035166;28;20049;-62
2023/03/23 02:36:46;;;;;;;8.43;5.40;;;9.40;99.90;;;;;;5032873;28;20439;-62
2023/03/23 02:39:21;;;;;;;8.55;5.53;;;9.30;99.90;;;;;;5018709;28;20501;-62
2023/03/23 02:42:02;;;;;;;7.75;5.40;;;9.20;99.90;;;;;;5035270;28;20029;-62
2023/03/23 02:44:31;;;;;;;7.97;5.22;;;9.20;99.90;;;;;;5032565;28;20524;-61
2023/03/23 02:47:00;;;;;;;6.78;4.72;;;9.10;99.90;;;;;;5053342;28;20068;-62
2023/03/23 02:49:30;;;;;;;7.95;4.65;;;9.10;99.90;;;;;;5035016;28;20591;-62
2023/03/23 02:51:59;;;;;;;7.32;5.03;;;9.10;99.90;;;;;;5035091;28;20029;-62
2023/03/23 02:54:26;;;;;;;7.30;4.30;;;9.20;99.90;;;;;;5016132;28;20033;-62
2023/03/23 02:56:54;;;;;;;9.32;4.32;;;9.30;99.90;;;;;;5035020;28;20044;-62
2023/03/23 02:59:25;;;;;;;7.23;4.37;;;9.50;99.90;;;;;;5028152;28;20401;-62
2023/03/23 03:01:58;;;;;;;6.47;4.30;;;9.60;99.90;;;;;;5051499;28;20554;-62
2023/03/23 03:04:26;;;;;;;6.57;4.55;;;9.60;99.90;;;;;;5034652;28;20567;-62
2023/03/23 03:07:35;;;;;;;5.65;3.80;;;9.70;99.90;;;;;;5018212;28;20496;-62
2023/03/23 03:10:11;;;;;;;4.15;3.45;;;9.70;99.90;;;;;;4988872;28;20100;-62
2023/03/23 03:12:57;;;;;;;7.18;4.13;;;9.80;99.90;;;;;;5032321;28;20048;-62
2023/03/23 03:15:58;;;;;;;6.60;4.30;;;9.80;99.90;;;;;;5017092;28;20037;-62
2023/03/23 03:18:33;;;;;;;6.35;4.30;;;9.80;99.90;;;;;;5030060;28;20147;-62
2023/03/23 03:21:06;;;;;;;6.60;4.53;;;9.90;99.90;;;;;;5018194;28;20041;-62
2023/03/23 03:23:35;;;;;;;6.40;4.85;;;9.90;99.90;;;;;;5027757;28;20040;-62
2023/03/23 03:26:04;;;;;;;8.07;4.38;;;9.90;99.90;;;;;;5017237;28;20036;-62
2023/03/23 03:28:49;;;;;;;6.07;4.43;;;9.90;99.90;;;;;;5034134;28;20120;-63
2023/03/23 03:31:24;;;;;;;5.63;3.97;;;10.00;99.90;;;;;;5034311;28;20065;-62
2023/03/23 03:33:50;;;;;;;5.30;4.07;;;9.90;99.90;;;;;;5017271;28;20564;-62
2023/03/23 03:36:21;;;;;;;8.10;4.25;;;10.00;99.90;;;;;;5034074;28;20047;-62
2023/03/23 03:38:49;;;;;;;5.22;3.75;;;10.00;99.90;;;;;;5032633;28;20063;-62
2023/03/23 03:41:17;;;;;;;5.03;3.33;;;10.00;99.90;;;;;;5033090;28;20041;-62
2023/03/23 03:43:42;;;;;;;6.47;3.35;;;10.10;99.90;;;;;;5030528;28;20044;-62
2023/03/23 03:46:08;;;;;;;4.57;3.40;;;10.20;99.90;;;;;;5033978;28;20175;-62
2023/03/23 03:48:34;;;;;;;5.60;3.95;;;10.20;99.90;;;;;;5033680;28;20048;-62
2023/03/23 03:51:02;;;;;;;5.07;3.50;;;10.30;99.90;;;;;;5013979;28;20041;-63
2023/03/23 03:53:31;;;;;;;5.35;3.45;;;10.30;99.90;;;;;;5017133;28;20111;-62
2023/03/23 03:55:59;;;;;;;5.05;3.42;;;10.30;99.90;;;;;;5033782;28;20036;-62
2023/03/23 03:58:31;;;;;;;5.35;4.68;;;10.40;99.90;;;;;;5050925;28;20048;-63
2023/03/23 04:01:00;;;;;;;5.50;4.50;;;10.40;99.90;;;;;;5033334;28;20142;-63
2023/03/23 04:03:30;;;;;;;5.97;3.53;;;10.30;99.90;;;;;;5014086;28;20045;-62
2023/03/23 04:06:03;;;;;;;;;;;10.20;99.90;;;;;;5016935;28;20117;-63
2023/03/23 04:08:30;;;;;;;6.38;4.22;;;10.30;99.90;;;;;;5033966;28;20396;-63
2023/03/23 04:10:56;;;;;;;4.18;3.28;;;10.30;99.90;;;;;;5033818;28;20048;-63
2023/03/23 04:13:23;;;;;;;5.40;2.80;;;10.40;99.90;;;;;;5033373;28;20037;-63
2023/03/23 04:16:09;;;;;;;4.20;2.10;;;10.60;99.90;;;;;;5036395;28;20509;-63
2023/03/23 04:18:35;;;;;;;3.35;2.25;;;11.00;99.90;;;;;;5030766;28;20040;-63
2023/03/23 04:21:02;;;;;;;3.60;2.40;;;11.20;99.90;;;;;;5033654;28;20052;-63
2023/03/23 04:23:33;;;;;;;4.05;2.70;;;11.20;99.90;;;;;;5026817;28;20029;-63
2023/03/23 04:26:03;;;;;;;3.95;2.50;;;11.10;99.90;;;;;;5015660;28;20068;-63
2023/03/23 04:28:34;;;;;;;5.05;2.40;;;11.10;99.90;;;;;;5017768;28;20117;-62
2023/03/23 04:31:26;;;;;;;3.10;2.60;;;11.10;99.90;;;;;;5009023;28;20045;-62
2023/03/23 04:34:01;;;;;;;3.30;2.17;;;11.20;99.90;;;;;;5034495;28;20040;-63
2023/03/23 04:36:33;;;;;;;4.07;2.00;;;11.40;99.90;;;;;;5033514;28;20037;-62
2023/03/23 04:39:06;;;;;;;2.85;2.13;;;11.50;99.90;;;;;;5017713;28;20069;-62
2023/03/23 04:41:35;;;;;;;2.42;2.20;;;11.70;99.90;;;;;;5030743;28;20068;-62
2023/03/23 04:44:17;;;;;;;3.40;2.20;;;11.70;99.90;;;;;;5035509;28;20611;-62
2023/03/23 04:46:49;;;;;;;3.60;1.92;;;11.60;99.90;;;;;;5007391;28;20044;-62
2023/03/23 04:49:20;;;;;;;5.57;2.95;;;11.50;99.90;;;;;;5029362;28;20045;-62
2023/03/23 04:51:50;;;;;;;4.30;2.63;;;11.40;99.90;;;;;;5033050;28;20123;-62
2023/03/23 04:54:24;;;;;;;7.32;2.50;;;11.20;99.90;;;;;;5025565;28;20040;-63
2023/03/23 04:56:54;;;;;;;5.90;2.67;;;11.20;99.90;;;;;;5049216;28;20416;-63
2023/03/23 04:59:21;;;;;;;4.57;3.00;;;11.10;99.90;;;;;;5033262;28;20128;-62
2023/03/23 05:02:07;;;;;;;3.70;2.65;;;11.00;99.90;;;;;;5035512;28;20501;-62
2023/03/23 05:04:33;;;;;;;4.10;2.97;;;10.90;99.90;;;;;;5030479;28;20059;-63
2023/03/23 05:07:04;;;;;;;4.20;3.30;;;10.90;99.90;;;;;;5016963;28;20040;-62
2023/03/23 05:09:35;;;;;;;5.80;3.15;;;10.80;99.90;;;;;;5033511;28;20087;-62
2023/03/23 05:12:09;;;;;;;4.85;3.90;;;10.70;99.90;;;;;;5022348;28;20049;-63
2023/03/23 05:14:45;;;;;;;5.78;3.63;;;10.60;99.90;;;;;;5016814;28;20029;-63
2023/03/23 05:17:16;;;;;;;9.52;4.38;;;10.60;99.90;;;;;;5035924;28;20033;-63
2023/03/23 05:19:47;;;;;;;6.90;3.97;;;10.50;99.90;;;;;;5030675;28;20037;-62
2023/03/23 05:22:32;;;;;;;5.53;3.72;;;10.50;99.90;;;;;;5048562;28;20063;-63
2023/03/23 05:25:02;;;;;;;7.07;4.28;;;10.50;99.90;;;;;;5031093;28;20413;-62
2023/03/23 05:27:30;;;;;;;6.70;4.38;;;10.50;99.90;;;;;;5016196;28;20033;-62
2023/03/23 05:30:01;;;;;;;6.57;4.32;;;10.50;99.90;;;;;;5016868;28;20132;-63
2023/03/23 05:32:28;;;;;;;7.35;4.10;;;10.50;99.90;;;;;;5032609;28;20119;-62
2023/03/23 05:34:58;;;;;;;5.47;3.90;;;10.50;99.90;;;;;;5016933;28;20658;-62
2023/03/23 05:37:25;;;;;;;7.25;3.70;;;10.50;99.90;;;;;;5032618;28;20086;-63
2023/03/23 05:39:58;;;;;;;;;;;10.50;99.90;;;;;;5024810;28;20036;-63
2023/03/23 05:42:24;;;;;;;5.03;3.85;;;10.60;99.90;;;;;;5047739;28;20344;-63
2023/03/23 05:45:08;;;;;;;5.40;3.83;;;10.70;99.90;;;;;;5019877;28;20144;-63
2023/03/23 05:47:35;;;;;;;5.78;3.83;;;10.70;99.90;;;;;;5016012;28;20509;-63
2023/03/23 05:50:08;;;;;;;7.43;4.15;;;10.70;99.90;;;;;;5010392;28;20041;-62
2023/03/23 05:52:36;;;;;;;5.50;3.55;;;10.70;99.90;;;;;;5019313;28;20118;-62
2023/03/23 05:55:06;;;;;;;5.75;4.07;;;10.80;99.90;;;;;;5030109;28;20036;-62
2023/03/23 05:57:35;;;;;;;7.68;3.92;;;10.80;99.90;;;;;;5030947;28;20132;-62
2023/03/23 06:00:14;;;;;;;5.32;3.65;;;10.90;99.90;;;;;;5032921;28;20063;-63
2023/03/23 06:02:43;;;;;;;5.30;3.42;;;10.90;99.90;;;;;;5044312;28;20468;-62
2023/03/23 06:05:13;;;;;;;5.07;3.58;;;11.10;99.90;;;;;;5032912;28;20044;-62
2023/03/23 06:07:43;;;;;;;8.95;3.75;;;11.10;99.90;;;;;;5036016;28;20083;-63
2023/03/23 06:10:10;;;;;;;6.22;3.80;;;11.10;99.90;;;;;;5018758;28;20032;-63
2023/03/23 06:12:41;;;;;;;5.35;3.55;;;11.20;99.90;;;;;;5034364;28;20044;-63
2023/03/23 06:15:10;;;;;;;6.03;3.33;;;11.20;99.90;;;;;;5034618;28;20059;-62
2023/03/23 06:17:59;;;;;;;6.38;3.40;;;11.20;99.90;;;;;;5036451;28;20091;-63
2023/03/23 06:20:30;;;;;;;6.30;3.60;;;11.20;99.90;;;;;;5053163;28;20025;-62
2023/03/23 06:22:57;;;;;;;6.05;3.58;;;11.20;99.90;;;;;;5004679;28;20124;-62
2023/03/23 06:25:30;;;;;;;4.72;3.35;;;11.20;99.90;;;;;;5020801;28;20033;-62
2023/03/23 06:27:57;;;;;;;7.10;3.30;;;11.30;99.90;;;;;;5023865;28;20061;-63
2023/03/23 06:30:23;;;;;;;4.97;3.42;;;11.30;99.90;;;;;;5018277;28;20056;-62
2023/03/23 06:32:50;;;;;;;6.22;3.10;;;11.30;99.90;;;;;;5032845;28;20036;-63
2023/03/23 06:35:23;;;;;;;4.82;3.15;;;11.20;99.90;;;;;;5033382;28;20060;-62
2023/03/23 06:38:12;;;;;;;5.88;2.88;;;11.40;99.90;;;;;;5024325;28;20081;-61
2023/03/23 06:40:46;;;;;;;5.47;3.13;;;11.50;99.90;;;;;;5066475;28;20036;-62
2023/03/23 06:43:14;;;;;;;4.50;3.20;;;11.50;99.90;;;;;;5043616;28;20037;-63
2023/03/23 06:46:00;;;;;;;10.38;3.53;;;11.50;99.90;;;;;;5022870;28;20505;-63
2023/03/23 06:48:41;;;;;;;4.97;3.05;;;11.60;99.90;;;;;;5036712;28;20045;-62
2023/03/23 06:51:09;;;;;;;4.15;2.42;;;11.60;99.90;;;;;;5031633;28;20561;-62
2023/03/23 06:53:37;;;;;;;3.78;2.58;;;11.70;99.90;;;;;;5010573;28;20167;-63
2023/03/23 06:56:05;;;;;;;4.00;2.67;;;11.80;99.90;;;;;;5032844;28;20420;-63
2023/03/23 06:58:33;;;;;;;4.15;2.80;;;11.90;99.90;;;;;;5018248;28;20040;-63
2023/03/23 07:01:00;;;;;;;6.30;2.72;;;12.00;99.90;;;;;;5050798;28;20041;-63
2023/03/23 07:03:34;;;;;;;3.58;2.38;;;12.00;99.90;;;;;;5035042;28;20037;-63
2023/03/23 07:06:01;;;;;;;4.65;2.70;;;12.20;99.90;;;;;;5018956;28;20037;-63
2023/03/23 07:08:31;;;;;;;4.80;2.83;;;12.20;99.90;;;;;;5018817;28;20099;-62
2023/03/23 07:10:57;;;;;;;11.73;2.75;;;12.30;99.90;;;;;;5043395;28;20021;-63
2023/03/23 07:13:27;;;;;;;3.78;2.20;;;12.40;99.90;;;;;;5031433;28;20036;-62
2023/03/23 07:15:59;;;;;;;4.30;2.40;;;12.50;99.90;;;;;;5032572;28;20029;-62
2023/03/23 07:18:25;;;;;;;3.85;2.08;;;12.60;99.90;;;;;;5015896;28;20499;-62
2023/03/23 07:20:53;;;;;;;4.72;1.90;;;12.70;99.90;;;;;;5016667;28;20493;-62
2023/03/23 07:23:22;;;;;;;4.20;2.10;;;12.70;99.90;;;;;;5030059;28;20080;-62
2023/03/23 07:26:08;;;;;;;3.33;2.03;;;12.90;99.90;;;;;;5021406;28;20045;-62
2023/03/23 07:28:42;;;;;;;5.40;1.70;;;13.00;99.90;;;;;;5031734;28;20037;-63
2023/03/23 07:31:19;;;;;;;2.83;2.28;;;13.20;99.90;;;;;;5037532;28;20532;-62
2023/03/23 07:33:45;;;;;;;2.15;1.65;;;13.30;99.90;;;;;;5013973;28;20494;-62
2023/03/23 07:36:12;;;;;;;3.03;2.00;;;13.40;99.90;;;;;;5014153;28;20033;-62
2023/03/23 07:38:38;;;;;;;4.75;1.80;;;13.50;99.90;;;;;;4999943;28;20032;-63
2023/03/23 07:41:06;;;;;;;4.13;2.25;;;13.50;99.90;;;;;;5019823;28;20041;-61
2023/03/23 07:43:32;;;;;;;4.50;1.80;;;13.70;99.90;;;;;;5014854;28;20033;-62
2023/03/23 07:46:04;;;;;;;3.78;1.95;;;13.90;99.90;;;;;;5030182;28;20060;-62
2023/03/23 07:49:06;;;;;;;3.97;1.83;;;13.90;99.90;;;;;;5017089;28;20033;-62
2023/03/23 07:51:39;;;;;;;4.18;2.88;;;14.10;99.90;;;;;;5021921;28;20098;-62
2023/03/23 07:54:07;;;;;;;4.20;1.92;;;14.20;99.90;;;;;;5018272;28;20387;-63
2023/03/23 07:56:50;;;;;;;3.97;1.87;;;14.30;99.90;;;;;;5016088;28;20041;-62
2023/03/23 07:59:29;;;;;;;3.92;2.15;;;14.40;99.90;;;;;;5048454;28;20098;-63
2023/03/23 08:01:58;;;;;;;2.10;1.60;;;14.50;99.90;;;;;;5002783;28;20049;-63
2023/03/23 08:04:27;;;;;;;4.82;1.83;;;14.70;99.90;;;;;;5021830;28;20464;-62
2023/03/23 08:07:08;;;;;;;2.88;2.05;;;14.80;99.90;;;;;;5038697;28;20044;-64
2023/03/23 08:09:57;;;;;;;2.80;1.80;;;14.80;99.90;;;;;;5024405;28;20048;-63
2023/03/23 08:12:42;;;;;;;3.22;2.65;;;14.90;99.90;;;;;;5038099;28;20106;-63
2023/03/23 08:15:14;;;;;;;2.15;1.70;;;15.00;99.90;;;;;;5064636;28;20045;-63
2023/03/23 08:17:58;;;;;;;3.35;2.10;;;15.00;99.90;;;;;;5033841;28;20127;-62
2023/03/23 08:20:50;;;;;;;4.45;2.10;;;15.00;99.90;;;;;;5022745;28;20425;-63
2023/03/23 08:23:38;;;;;;;3.45;1.80;;;15.10;99.90;;;;;;5035770;28;20056;-63
2023/03/23 08:26:17;;;;;;;4.53;2.28;;;15.10;99.90;;;;;;5047834;28;20041;-62
2023/03/23 08:29:03;;;;;;;3.75;1.95;;;15.10;99.90;;;;;;5042692;28;20113;-62
2023/03/23 08:31:58;;;;;;;2.83;2.05;;;15.20;99.90;;;;;;5017689;28;20041;-63
2023/03/23 08:34:38;;;;;;;2.65;1.85;;;15.30;99.90;;;;;;5019168;28;20091;-63
2023/03/23 08:37:27;;;;;;;3.97;2.45;;;15.30;99.90;;;;;;5010726;28;20033;-63
2023/03/23 08:40:24;;;;;;;4.47;2.20;;;15.30;99.90;;;;;;5000299;28;20062;-62
2023/03/23 08:42:59;;;;;;;3.13;2.22;;;15.30;99.90;;;;;;5016686;28;20029;-62
2023/03/23 08:45:43;;;;;;;3.03;1.95;;;15.30;99.90;;;;;;5018028;28;20039;-63
2023/03/23 08:48:22;;;;;;;2.58;2.10;;;15.30;99.90;;;;;;5032585;28;20040;-63
2023/03/23 08:51:08;;;;;;;4.22;2.22;;;15.30;99.90;;;;;;5035971;28;20052;-63
2023/03/23 08:53:46;;;;;;;2.33;2.08;;;15.20;99.90;;;;;;5018420;28;20105;-63
2023/03/23 08:56:45;;;;;;;3.28;1.80;;;15.20;99.90;;;;;;5015306;28;20041;-62
2023/03/23 08:59:23;;;;;;;2.97;1.80;;;15.20;99.90;;;;;;5031452;28;20091;-63
2023/03/23 09:02:12;;;;;;;2.58;2.13;;;15.10;99.90;;;;;;5019998;28;20029;-63
2023/03/23 09:04:56;;;;;;;3.60;1.73;;;15.20;99.90;;;;;;5019930;28;20029;-63
2023/03/23 09:07:45;;;;;;;2.45;1.70;;;15.30;99.90;;;;;;5033948;28;20090;-62
2023/03/23 09:10:13;;;;;;;2.50;1.80;;;15.30;99.90;;;;;;5029731;28;20499;-62
2023/03/23 09:12:39;;;;;;;3.63;2.03;;;15.50;99.90;;;;;;5032223;28;20128;-63
2023/03/23 09:15:08;;;;;;;3.00;1.80;;;15.50;99.90;;;;;;5032737;28;20045;-63
2023/03/23 09:17:37;;;;;;;2.50;1.75;;;15.50;99.90;;;;;;5030999;28;20029;-62
2023/03/23 09:20:11;;;;;;;3.08;1.90;;;15.60;99.90;;;;;;5030227;28;20497;-63
2023/03/23 09:22:45;;;;;;;4.03;1.90;;;15.60;99.90;;;;;;5031157;28;20033;-63
2023/03/23 09:25:14;;;;;;;2.25;1.83;;;15.50;99.90;;;;;;5015953;28;20080;-62
2023/03/23 09:27:41;;;;;;;4.32;1.98;;;15.60;99.90;;;;;;5031819;28;20124;-63
2023/03/23 09:30:10;;;;;;;2.30;1.77;;;15.50;99.90;;;;;;5014519;28;20037;-62
2023/03/23 09:32:37;;;;;;;2.75;2.00;;;15.50;99.90;;;;;;5030712;28;20049;-62
2023/03/23 09:35:07;;;;;;;4.20;1.80;;;15.60;99.90;;;;;;5028863;28;20126;-63
2023/03/23 09:37:35;;;;;;;6.03;2.38;;;15.60;99.90;;;;;;5030834;28;20037;-63
2023/03/23 09:40:05;;;;;;;3.88;2.10;;;15.60;99.90;;;;;;5032313;28;20123;-63
2023/03/23 09:42:56;;;;;;;2.80;1.65;;;15.60;99.90;;;;;;5035428;28;20068;-63
2023/03/23 09:45:44;;;;;;;2.80;2.15;;;15.60;99.90;;;;;;5043471;28;20028;-62
2023/03/23 09:48:28;;;;;;;4.13;2.83;;;15.60;99.90;;;;;;5035778;28;20044;-63
2023/03/23 09:51:18;;;;;;;2.75;1.90;;;15.70;99.90;;;;;;5035847;28;20037;-63
2023/03/23 09:53:51;;;;;;;3.08;1.83;;;15.70;99.90;;;;;;5030797;28;20098;-62
2023/03/23 09:56:17;;;;;;;;;;;15.70;99.90;;;;;;5036909;28;20200;-63
2023/03/23 09:58:57;;;;;;;2.90;1.90;;;15.80;99.90;;;;;;5036565;28;19917;-63
2023/03/23 10:01:32;;;;;;;5.65;2.10;;;15.90;99.90;;;;;;5036441;28;20615;-62
2023/03/23 10:04:26;;;;;;;5.20;1.80;;;15.90;99.90;;;;;;5033439;28;20440;-63
2023/03/23 10:06:58;;;;;;;5.28;1.95;;;16.00;99.90;;;;;;5060931;28;20506;-63
2023/03/23 10:09:24;;;;;;;2.55;1.88;;;16.00;99.90;;;;;;5035028;28;20033;-62
2023/03/23 10:12:07;;;;;;;2.58;1.80;;;16.10;99.90;;;;;;5036341;28;20037;-63
2023/03/23 10:15:09;;;;;;;3.42;1.75;;;16.20;99.90;;;;;;5035943;28;20037;-63
2023/03/23 10:17:47;;;;;;;5.13;1.77;;;16.20;99.90;;;;;;5035905;28;20492;-63
2023/03/23 10:20:22;;;;;;;6.30;1.80;;;16.30;99.90;;;;;;5035090;28;20044;-63
2023/03/23 10:22:54;;;;;;;3.13;1.77;;;16.30;99.90;;;;;;5035095;28;20061;-62
2023/03/23 10:25:27;;;;;;;4.28;1.83;;;16.40;99.90;;;;;;5036052;28;20068;-62
2023/03/23 10:28:12;;;;;;;2.78;1.45;;;16.50;99.90;;;;;;5038953;28;20037;-62
2023/03/23 10:30:54;;;;;;;6.20;1.50;;;16.50;99.90;;;;;;5035816;28;20896;-62
2023/03/23 10:33:37;;;;;;;2.13;1.40;;;16.50;99.90;;;;;;5014273;28;20119;-62
2023/03/23 10:36:16;;;;;;;2.25;1.38;;;16.50;99.90;;;;;;5035932;28;20041;-62
2023/03/23 10:39:03;;;;;;;2.47;1.13;;;16.60;99.90;;;;;;5034098;28;20505;-63
2023/03/23 10:41:30;;;;;;;3.72;1.25;;;16.70;99.90;;;;;;5048294;28;20043;-63
2023/03/23 10:43:56;;;;;;;3.65;2.17;;;16.70;99.90;;;;;;5036057;28;20033;-63
2023/03/23 10:46:42;;;;;;;2.15;1.20;;;16.80;99.90;;;;;;5037402;28;20030;-62
2023/03/23 10:49:12;;;;;;;2.38;1.25;;;16.80;99.90;;;;;;5033935;28;20038;-63
2023/03/23 10:51:43;;;;;;;2.83;1.25;;;16.70;99.90;;;;;;5036599;28;20033;-63
2023/03/23 10:54:10;;;;;;;4.82;1.30;;;16.70;99.90;;;;;;5062562;28;20037;-63
2023/03/23 10:56:39;;;;;;;1.73;1.10;;;16.70;99.90;;;;;;5040806;28;20120;-63
2023/03/23 10:59:20;;;;;;;2.75;1.30;;;16.80;99.90;;;;;;5037916;28;20044;-63
2023/03/23 11:01:51;;;;;;;2.85;1.35;;;16.80;99.90;;;;;;5049044;28;20114;-62
2023/03/23 11:04:19;;;;;;;2.40;1.33;;;16.80;99.90;;;;;;5038722;28;20029;-63
2023/03/23 11:07:00;;;;;;;1.85;1.17;;;16.90;99.90;;;;;;5036540;28;20045;-63
2023/03/23 11:09:36;;;;;;;2.25;1.35;;;16.90;99.90;;;;;;5037403;28;20075;-62
2023/03/23 11:12:04;;;;;;;4.03;1.15;;;16.80;99.90;;;;;;5031822;28;20428;-62
2023/03/23 11:14:38;;;;;;;2.45;1.27;;;16.80;99.90;;;;;;5018654;28;20064;-62
2023/03/23 11:17:20;;;;;;;2.60;1.50;;;16.80;99.90;;;;;;5032131;28;20056;-63
2023/03/23 11:19:46;;;;;;;3.70;1.45;;;16.90;99.90;;;;;;5052571;28;20083;-63
2023/03/23 11:22:31;;;;;;;3.85;1.33;;;16.90;99.90;;;;;;5035405;28;20452;-63
2023/03/23 11:25:04;;;;;;;1.45;1.10;;;17.00;99.90;;;;;;5018743;28;20041;-62
2023/03/23 11:27:32;;;;;;;2.45;1.48;;;17.20;99.90;;;;;;5034191;28;20280;-63
2023/03/23 11:30:10;;;;;;;1.98;1.52;;;17.40;99.90;;;;;;5018186;28;20045;-63
2023/03/23 11:32:37;;;;;;;2.17;1.55;;;17.50;99.90;;;;;;5052211;28;20552;-63
2023/03/23 11:35:18;;;;;;;3.05;1.35;;;17.50;99.90;;;;;;5012971;28;20045;-63
2023/03/23 11:37:48;;;;;;;3.95;1.45;;;17.50;99.90;;;;;;5055744;28;20068;-62
2023/03/23 11:40:18;;;;;;;3.35;1.70;;;17.30;99.90;;;;;;5036034;28;20121;-63
2023/03/23 11:42:53;;;;;;;2.45;1.50;;;17.30;99.90;;;;;;5039625;28;20036;-62
2023/03/23 11:45:22;;;;;;;1.92;1.23;;;17.20;99.90;;;;;;5036949;28;20041;-62
2023/03/23 11:47:52;;;;;;;3.33;1.50;;;17.20;99.90;;;;;;5037591;28;20032;-62
2023/03/23 11:50:27;;;;;;;2.55;1.20;;;17.20;99.90;;;;;;5036881;28;20056;-63
2023/03/23 11:53:19;;;;;;;5.05;3.13;;;17.20;99.90;;;;;;5035591;28;20045;-63
2023/03/23 11:55:45;;;;;;;2.70;2.15;;;17.10;99.90;;;;;;5044512;28;20637;-62
2023/03/23 11:58:15;;;;;;;2.38;1.50;;;17.10;99.90;;;;;;5033944;28;20044;-63
2023/03/23 12:01:09;;;;;;;4.63;1.40;;;17.10;99.90;;;;;;5035325;28;20089;-62
2023/03/23 12:03:53;;;;;;;1.77;1.30;;;17.00;99.90;;;;;;5028863;28;20045;-62
2023/03/23 12:06:44;;;;;;;5.85;1.17;;;17.00;99.90;;;;;;5032995;28;20025;-63
2023/03/23 12:10:06;;;;;;;3.17;1.48;;;17.00;99.90;;;;;;5017898;28;20041;-62
2023/03/23 12:12:38;;;;;;;2.05;1.42;;;17.00;99.90;;;;;;5022654;28;20095;-63
2023/03/23 12:15:31;;;;;;;1.98;1.02;;;16.90;99.90;;;;;;5028798;28;20038;-62
2023/03/23 12:18:15;;;;;;;4.35;1.42;;;16.90;99.90;;;;;;5027434;28;20164;-62
2023/03/23 12:20:56;;;;;;;3.08;1.80;;;16.90;99.90;;;;;;5034848;28;20055;-63
2023/03/23 12:23:41;;;;;;;2.05;1.40;;;16.90;99.90;;;;;;5030983;28;20036;-63
2023/03/23 12:26:15;;;;;;;4.38;1.70;;;17.00;99.90;;;;;;5053827;28;20052;-63
2023/03/23 12:29:16;;;;;;;2.38;1.45;;;17.00;99.90;;;;;;5036269;28;20110;-62
2023/03/23 12:32:02;;;;;;;4.38;1.95;;;17.10;99.90;;;;;;5014985;28;20474;-62
2023/03/23 12:34:31;;;;;;;2.13;1.42;;;17.20;99.90;;;;;;5015275;28;20056;-62
2023/03/23 12:37:21;;;;;;;2.75;1.38;;;17.30;99.90;;;;;;5034746;28;20811;-62
2023/03/23 12:39:56;;;;;;;3.50;1.48;;;17.30;99.90;;;;;;5029416;28;20056;-62
2023/03/23 12:42:36;;;;;;;4.22;2.15;;;17.40;99.90;;;;;;5032348;28;20628;-63
2023/03/23 12:45:12;;;;;;;3.80;1.73;;;17.40;99.90;;;;;;5051613;28;20029;-63
2023/03/23 12:47:44;;;;;;;2.97;1.67;;;17.30;99.90;;;;;;5052709;28;20501;-63
2023/03/23 12:50:25;;;;;;;3.35;1.90;;;17.30;99.90;;;;;;5036216;28;20041;-63
2023/03/23 12:52:57;;;;;;;2.60;1.70;;;17.30;99.90;;;;;;5034090;28;20106;-62
2023/03/23 12:55:45;;;;;;;2.58;1.55;;;17.20;99.90;;;;;;5033324;28;20148;-63
2023/03/23 12:58:26;;;;;;;2.15;1.65;;;17.20;99.90;;;;;;5031656;28;20040;-62
2023/03/23 13:01:01;;;;;;;1.92;1.42;;;17.20;99.90;;;;;;5039652;28;20033;-63
2023/03/23 13:04:00;;;;;;;2.70;1.33;;;17.10;99.90;;;;;;5033033;28;20116;-63
2023/03/23 13:06:29;;;;;;;3.40;2.50;;;17.20;99.90;;;;;;5030430;28;20068;-63
2023/03/23 13:09:02;;;;;;;1.73;1.50;;;17.30;99.90;;;;;;5046264;28;20037;-62
2023/03/23 13:11:35;;;;;;;3.40;1.60;;;17.40;99.90;;;;;;5034792;28;20036;-63
2023/03/23 13:14:23;;;;;;;2.10;1.45;;;17.50;99.90;;;;;;5033923;28;20497;-62
2023/03/23 13:17:30;;;;;;;4.13;2.08;;;17.40;99.90;;;;;;5018233;28;20095;-62
2023/03/23 13:20:12;;;;;;;4.07;1.50;;;17.50;99.90;;;;;;4977930;28;20072;-62
2023/03/23 13:23:11;;;;;;;4.53;1.50;;;17.50;99.90;;;;;;5012408;28;20076;-63
2023/03/23 13:25:54;;;;;;;2.53;1.45;;;17.50;99.90;;;;;;5030422;28;20037;-63
2023/03/23 13:28:29;;;;;;;3.22;1.65;;;17.50;99.90;;;;;;5032206;28;20674;-63